createdAt,value
2022-07-25T00:00:11.089Z,101758.29
2022-07-25T00:02:59.083Z,101754.47
2022-07-25T00:05:27.203Z,101753.83
2022-07-25T00:07:55.228Z,101752.80
2022-07-25T00:10:23.987Z,101752.48
2022-07-25T00:12:52.186Z,101756.54
2022-07-25T00:15:20.400Z,101756.02
2022-07-25T00:17:48.470Z,101757.27
2022-07-25T00:20:17.021Z,101754.48
2022-07-25T00:22:45.112Z,101751.85
2022-07-25T00:25:13.152Z,101751.34
2022-07-25T00:27:41.329Z,101750.65
2022-07-25T00:30:10.677Z,101753.13
2022-07-25T00:32:38.695Z,101754.36
2022-07-25T00:35:07.000Z,101751.38
2022-07-25T00:37:35.041Z,101753.50
2022-07-25T00:40:04.111Z,101758.44
2022-07-25T00:42:33.026Z,101760.57
2022-07-25T00:45:01.096Z,101756.73
2022-07-25T00:47:29.210Z,101753.60
2022-07-25T00:49:57.445Z,101749.93
2022-07-25T00:52:25.971Z,101751.88
2022-07-25T00:54:57.066Z,101749.27
2022-07-25T00:57:25.165Z,101745.25
2022-07-25T00:59:53.283Z,101744.39
2022-07-25T01:02:21.468Z,101743.89
2022-07-25T01:04:50.264Z,101738.64
2022-07-25T01:07:18.586Z,101737.45
2022-07-25T01:09:47.430Z,101739.92
2022-07-25T01:12:15.605Z,101736.61
2022-07-25T01:14:43.676Z,101733.28
2022-07-25T01:17:13.557Z,101732.39
2022-07-25T01:19:41.621Z,101733.63
2022-07-25T01:22:09.732Z,101735.40
2022-07-25T01:24:39.544Z,101735.42
2022-07-25T01:27:07.661Z,101729.13
2022-07-25T01:29:45.248Z,101728.29
2022-07-25T01:32:13.697Z,101727.95
2022-07-25T01:34:41.698Z,101726.57
2022-07-25T01:37:09.827Z,101730.45
2022-07-25T01:39:37.897Z,101729.23
2022-07-25T01:42:06.545Z,101729.94
2022-07-25T01:44:34.651Z,101725.56
2022-07-25T01:47:02.595Z,101723.13
2022-07-25T01:49:30.836Z,101723.67
2022-07-25T01:51:58.820Z,101725.96
2022-07-25T01:54:27.035Z,101726.67
2022-07-25T01:56:55.045Z,101722.84
2022-07-25T01:59:23.041Z,101722.88
2022-07-25T02:01:51.141Z,101725.15
2022-07-25T02:04:19.544Z,101722.19
2022-07-25T02:06:47.888Z,101724.13
2022-07-25T02:09:16.043Z,101723.09
2022-07-25T02:11:44.254Z,101720.30
2022-07-25T02:14:12.368Z,101720.66
2022-07-25T02:16:40.484Z,101716.11
2022-07-25T02:19:08.714Z,101723.14
2022-07-25T02:21:37.040Z,101724.56
2022-07-25T02:24:05.410Z,101726.33
2022-07-25T02:26:34.106Z,101727.41
2022-07-25T02:29:02.278Z,101735.14
2022-07-25T02:31:30.448Z,101731.82
2022-07-25T02:33:58.628Z,101730.78
2022-07-25T02:36:26.731Z,101732.55
2022-07-25T02:38:54.714Z,101731.35
2022-07-25T02:41:22.984Z,101729.77
2022-07-25T02:43:51.056Z,101730.15
2022-07-25T02:46:19.578Z,101728.59
2022-07-25T02:48:48.048Z,101728.44
2022-07-25T02:51:16.187Z,101727.92
2022-07-25T02:53:57.014Z,101729.85
2022-07-25T02:56:29.776Z,101728.80
2022-07-25T02:58:58.577Z,101730.73
2022-07-25T03:01:27.154Z,101728.26
2022-07-25T03:03:55.350Z,101723.17
2022-07-25T03:06:23.450Z,101723.88
2022-07-25T03:08:51.601Z,101720.91
2022-07-25T03:11:19.897Z,101720.36
2022-07-25T03:13:48.130Z,101722.98
2022-07-25T03:16:16.857Z,101720.35
2022-07-25T03:18:45.092Z,101724.05
2022-07-25T03:21:13.157Z,101723.85
2022-07-25T03:23:41.843Z,101725.79
2022-07-25T03:26:10.331Z,101722.61
2022-07-25T03:28:38.309Z,101721.02
2022-07-25T03:31:06.488Z,101720.31
2022-07-25T03:33:35.197Z,101722.76
2022-07-25T03:36:03.818Z,101719.05
2022-07-25T03:38:31.921Z,101718.16
2022-07-25T03:41:00.079Z,101720.75
2022-07-25T03:43:28.459Z,101723.69
2022-07-25T03:45:56.684Z,101727.86
2022-07-25T03:48:24.957Z,101732.71
2022-07-25T03:50:53.092Z,101736.36
2022-07-25T03:53:21.078Z,101734.56
2022-07-25T03:55:49.428Z,101735.57
2022-07-25T03:58:17.751Z,101731.48
2022-07-25T04:00:45.867Z,101728.44
2022-07-25T04:03:14.762Z,101722.75
2022-07-25T04:05:47.407Z,101718.48
2022-07-25T04:08:15.930Z,101717.33
2022-07-25T04:10:43.941Z,101710.05
2022-07-25T04:13:12.114Z,101703.22
2022-07-25T04:15:40.336Z,101708.38
2022-07-25T04:18:09.184Z,101702.73
2022-07-25T04:20:42.467Z,101699.70
2022-07-25T04:23:10.550Z,101701.04
2022-07-25T04:25:38.761Z,101695.74
2022-07-25T04:28:06.835Z,101689.54
2022-07-25T04:30:35.005Z,101685.56
2022-07-25T04:33:03.107Z,101679.65
2022-07-25T04:35:31.187Z,101684.92
2022-07-25T04:37:59.215Z,101682.20
2022-07-25T04:40:27.385Z,101680.85
2022-07-25T04:42:55.561Z,101677.39
2022-07-25T04:45:24.430Z,101673.52
2022-07-25T04:47:52.932Z,101669.08
2022-07-25T04:50:24.851Z,101663.02
2022-07-25T04:52:53.376Z,101656.98
2022-07-25T04:55:21.754Z,101657.73
2022-07-25T04:57:49.928Z,101651.71
2022-07-25T05:00:18.522Z,101652.63
2022-07-25T05:02:46.873Z,101655.84
2022-07-25T05:05:20.926Z,101657.79
2022-07-25T05:07:55.718Z,101656.64
2022-07-25T05:10:24.340Z,101651.23
2022-07-25T05:12:52.422Z,101650.92
2022-07-25T05:15:21.059Z,101653.80
2022-07-25T05:17:49.080Z,101650.66
2022-07-25T05:20:17.304Z,101652.27
2022-07-25T05:22:45.422Z,101650.67
2022-07-25T05:25:13.660Z,101646.54
2022-07-25T05:27:42.133Z,101644.53
2022-07-25T05:30:11.878Z,101642.34
2022-07-25T05:32:41.548Z,101639.10
2022-07-25T05:35:10.762Z,101642.98
2022-07-25T05:37:39.176Z,101644.77
2022-07-25T05:40:08.675Z,101640.86
2022-07-25T05:42:36.913Z,101632.47
2022-07-25T05:45:05.683Z,101629.19
2022-07-25T05:47:33.847Z,101626.73
2022-07-25T05:50:02.654Z,101628.14
2022-07-25T05:52:30.843Z,101628.83
2022-07-25T05:54:59.014Z,101631.27
2022-07-25T05:57:27.803Z,101631.20
2022-07-25T05:59:55.823Z,101626.98
2022-07-25T06:02:24.220Z,101625.11
2022-07-25T06:04:52.916Z,101626.60
2022-07-25T06:07:20.952Z,101624.59
2022-07-25T06:09:49.159Z,101618.36
2022-07-25T06:12:17.510Z,101622.92
2022-07-25T06:14:45.709Z,101619.61
2022-07-25T06:17:13.906Z,101613.06
2022-07-25T06:19:41.916Z,101610.52
2022-07-25T06:22:11.479Z,101612.67
2022-07-25T06:24:39.627Z,101611.73
2022-07-25T06:27:08.688Z,101605.00
2022-07-25T06:29:38.948Z,101600.40
2022-07-25T06:32:06.982Z,101594.01
2022-07-25T06:34:34.983Z,101591.36
2022-07-25T06:37:03.141Z,101592.73
2022-07-25T06:39:31.279Z,101589.60
2022-07-25T06:41:59.965Z,101590.38
2022-07-25T06:44:35.710Z,101583.35
2022-07-25T06:47:04.451Z,101580.02
2022-07-25T06:49:32.454Z,101584.13
2022-07-25T06:52:00.489Z,101584.88
2022-07-25T06:54:28.488Z,101582.48
2022-07-25T06:56:56.521Z,101581.14
2022-07-25T06:59:24.596Z,101582.58
2022-07-25T07:01:52.772Z,101573.42
2022-07-25T07:04:20.945Z,101572.52
2022-07-25T07:06:48.967Z,101566.48
2022-07-25T07:09:17.333Z,101570.08
2022-07-25T07:11:45.565Z,101568.93
2022-07-25T07:14:13.743Z,101564.20
2022-07-25T07:16:42.560Z,101564.48
2022-07-25T07:19:14.856Z,101565.20
2022-07-25T07:21:43.461Z,101567.61
2022-07-25T07:24:24.205Z,101567.36
2022-07-25T07:26:54.629Z,101563.29
2022-07-25T07:29:22.762Z,101557.42
2022-07-25T07:31:50.984Z,101556.38
2022-07-25T07:34:19.251Z,101552.40
2022-07-25T07:36:47.478Z,101546.93
2022-07-25T07:39:16.734Z,101545.74
2022-07-25T07:41:45.185Z,101540.44
2022-07-25T07:44:13.282Z,101538.45
2022-07-25T07:46:41.433Z,101532.86
2022-07-25T07:49:10.089Z,101526.38
2022-07-25T07:51:38.824Z,101520.73
2022-07-25T07:54:25.634Z,101522.72
2022-07-25T07:56:53.663Z,101527.62
2022-07-25T07:59:22.157Z,101527.93
2022-07-25T08:01:50.338Z,101530.02
2022-07-25T08:04:18.511Z,101528.44
2022-07-25T08:06:46.545Z,101527.91
2022-07-25T08:09:14.617Z,101533.98
2022-07-25T08:11:42.985Z,101531.73
2022-07-25T08:14:11.373Z,101533.87
2022-07-25T08:16:39.536Z,101531.41
2022-07-25T08:19:07.856Z,101532.86
2022-07-25T08:21:36.207Z,101533.31
2022-07-25T08:24:05.109Z,101532.73
2022-07-25T08:26:37.337Z,101530.31
2022-07-25T08:29:18.864Z,101529.62
2022-07-25T08:31:48.095Z,101528.48
2022-07-25T08:34:17.049Z,101531.36
2022-07-25T08:36:45.232Z,101529.77
2022-07-25T08:39:13.772Z,101527.55
2022-07-25T08:41:42.422Z,101527.23
2022-07-25T08:44:11.907Z,101521.96
2022-07-25T08:46:42.218Z,101519.15
2022-07-25T08:49:10.871Z,101513.80
2022-07-25T08:51:40.094Z,101514.59
2022-07-25T08:54:09.748Z,101515.26
2022-07-25T08:56:38.483Z,101514.52
2022-07-25T08:59:06.840Z,101513.15
2022-07-25T09:01:35.260Z,101508.79
2022-07-25T09:04:04.627Z,101509.20
2022-07-25T09:06:33.220Z,101507.27
2022-07-25T09:09:05.365Z,101512.44
2022-07-25T09:11:37.121Z,101508.34
2022-07-25T09:14:08.764Z,101512.88
2022-07-25T09:16:44.529Z,101512.41
2022-07-25T09:19:19.963Z,101506.94
2022-07-25T09:22:03.486Z,101505.06
2022-07-25T09:24:33.049Z,101502.77
2022-07-25T09:27:08.883Z,101500.27
2022-07-25T09:29:39.836Z,101500.86
2022-07-25T09:32:28.159Z,101491.52
2022-07-25T09:34:56.417Z,101498.76
2022-07-25T09:37:27.357Z,101497.08
2022-07-25T09:39:55.427Z,101495.39
2022-07-25T09:42:29.444Z,101497.75
2022-07-25T09:45:31.451Z,101497.79
2022-07-25T09:48:05.155Z,101497.11
2022-07-25T09:50:33.676Z,101494.56
2022-07-25T09:53:02.659Z,101492.36
2022-07-25T09:55:31.605Z,101485.84
2022-07-25T09:57:59.667Z,101484.13
2022-07-25T10:00:29.567Z,101479.34
2022-07-25T10:03:16.569Z,101479.21
2022-07-25T10:06:05.472Z,101476.64
2022-07-25T10:08:38.315Z,101476.52
2022-07-25T10:11:18.360Z,101471.81
2022-07-25T10:13:46.740Z,101469.38
2022-07-25T10:16:25.677Z,101469.82
2022-07-25T10:18:55.899Z,101464.69
2022-07-25T10:21:28.051Z,101463.34
2022-07-25T10:24:03.062Z,101458.92
2022-07-25T10:26:31.683Z,101453.91
2022-07-25T10:29:01.803Z,101456.08
2022-07-25T10:31:32.616Z,101457.02
2022-07-25T10:34:13.901Z,101452.67
2022-07-25T10:36:56.296Z,101450.81
2022-07-25T10:39:24.423Z,101444.00
2022-07-25T10:42:00.463Z,101437.98
2022-07-25T10:44:41.204Z,101440.32
2022-07-25T10:47:12.341Z,101441.12
2022-07-25T10:50:00.265Z,101440.40
2022-07-25T10:52:30.884Z,101437.16
2022-07-25T10:55:00.866Z,101430.23
2022-07-25T10:57:32.019Z,101425.54
2022-07-25T11:00:08.371Z,101428.90
2022-07-25T11:02:36.611Z,101426.13
2022-07-25T11:05:05.567Z,101421.10
2022-07-25T11:07:36.443Z,101418.69
2022-07-25T11:10:05.914Z,101414.17
2022-07-25T11:12:34.113Z,101412.61
2022-07-25T11:15:05.713Z,101408.03
2022-07-25T11:17:34.658Z,101402.13
2022-07-25T11:20:08.503Z,101404.19
2022-07-25T11:22:37.452Z,101402.77
2022-07-25T11:25:14.459Z,101403.71
2022-07-25T11:27:42.632Z,101395.55
2022-07-25T11:30:17.063Z,101398.11
2022-07-25T11:32:57.077Z,101399.94
2022-07-25T11:35:31.794Z,101390.39
2022-07-25T11:38:02.604Z,101391.52
2022-07-25T11:40:32.861Z,101384.59
2022-07-25T11:43:01.112Z,101382.12
2022-07-25T11:45:33.793Z,101379.95
2022-07-25T11:48:08.340Z,101377.13
2022-07-25T11:50:38.971Z,101372.70
2022-07-25T11:53:09.707Z,101370.23
2022-07-25T11:55:41.041Z,101366.73
2022-07-25T11:58:11.543Z,101364.91
2022-07-25T12:00:41.878Z,101358.20
2022-07-25T12:03:17.197Z,101359.63
2022-07-25T12:05:50.021Z,101355.07
2022-07-25T12:08:20.879Z,101349.84
2022-07-25T12:10:55.121Z,101347.82
2022-07-25T12:13:28.798Z,101340.98
2022-07-25T12:15:58.172Z,101338.67
2022-07-25T12:18:26.721Z,101336.06
2022-07-25T12:20:55.409Z,101333.48
2022-07-25T12:23:23.472Z,101335.02
2022-07-25T12:25:51.731Z,101327.73
2022-07-25T12:28:19.967Z,101327.40
2022-07-25T12:30:55.949Z,101320.27
2022-07-25T12:33:24.910Z,101321.27
2022-07-25T12:35:53.001Z,101316.04
2022-07-25T12:38:21.357Z,101316.84
2022-07-25T12:40:49.797Z,101303.17
2022-07-25T12:43:18.418Z,101301.33
2022-07-25T12:45:46.663Z,101300.39
2022-07-25T12:48:15.620Z,101297.22
2022-07-25T12:50:44.772Z,101299.92
2022-07-25T12:53:13.790Z,101296.73
2022-07-25T12:55:42.093Z,101292.85
2022-07-25T12:58:10.249Z,101284.23
2022-07-25T13:00:38.400Z,101284.53
2022-07-25T13:03:06.793Z,101282.26
2022-07-25T13:05:34.904Z,101274.11
2022-07-25T13:08:06.602Z,101273.69
2022-07-25T13:10:34.873Z,101266.66
2022-07-25T13:13:03.939Z,101267.67
2022-07-25T13:15:32.015Z,101268.02
2022-07-25T13:18:00.111Z,101264.46
2022-07-25T13:20:28.791Z,101253.89
2022-07-25T13:22:57.526Z,101249.67
2022-07-25T13:25:25.758Z,101252.08
2022-07-25T13:27:53.825Z,101252.71
2022-07-25T13:30:22.100Z,101250.63
2022-07-25T13:32:50.068Z,101243.33
2022-07-25T13:35:20.706Z,101243.33
2022-07-25T13:37:49.255Z,101236.70
2022-07-25T13:40:17.298Z,101234.48
2022-07-25T13:42:45.488Z,101235.95
2022-07-25T13:45:13.694Z,101226.75
2022-07-25T13:47:41.972Z,101222.30
2022-07-25T13:50:10.575Z,101216.57
2022-07-25T13:52:38.680Z,101212.89
2022-07-25T13:55:07.559Z,101206.56
2022-07-25T13:57:35.693Z,101197.67
2022-07-25T14:00:05.829Z,101199.26
2022-07-25T14:02:34.027Z,101196.38
2022-07-25T14:05:04.376Z,101201.75
2022-07-25T14:07:32.928Z,101200.02
2022-07-25T14:10:01.134Z,101196.52
2022-07-25T14:12:30.253Z,101194.98
2022-07-25T14:14:58.529Z,101193.52
2022-07-25T14:17:30.345Z,101190.38
2022-07-25T14:19:58.931Z,101185.67
2022-07-25T14:22:27.239Z,101186.53
2022-07-25T14:24:55.381Z,101186.47
2022-07-25T14:27:23.932Z,101180.96
2022-07-25T14:29:52.021Z,101179.39
2022-07-25T14:32:20.347Z,101172.41
2022-07-25T14:34:48.443Z,101170.94
2022-07-25T14:37:16.531Z,101170.02
2022-07-25T14:39:45.554Z,101167.17
2022-07-25T14:42:13.989Z,101169.07
2022-07-25T14:44:42.101Z,101167.76
2022-07-25T14:47:12.805Z,101163.08
2022-07-25T14:49:41.239Z,101161.89
2022-07-25T14:52:11.666Z,101159.12
2022-07-25T14:54:40.710Z,101154.99
2022-07-25T14:57:09.825Z,101151.94
2022-07-25T14:59:37.933Z,101141.74
2022-07-25T15:02:06.007Z,101137.30
2022-07-25T15:04:34.094Z,101130.53
2022-07-25T15:07:02.242Z,101127.34
2022-07-25T15:09:30.563Z,101122.81
2022-07-25T15:11:58.556Z,101118.92
2022-07-25T15:14:26.553Z,101119.06
2022-07-25T15:16:54.750Z,101116.84
2022-07-25T15:19:22.813Z,101106.59
2022-07-25T15:21:50.971Z,101100.95
2022-07-25T15:24:19.041Z,101101.69
2022-07-25T15:26:47.113Z,101100.48
2022-07-25T15:29:20.820Z,101098.30
2022-07-25T15:31:49.235Z,101093.81
2022-07-25T15:34:17.544Z,101087.73
2022-07-25T15:36:45.741Z,101086.95
2022-07-25T15:39:13.914Z,101081.55
2022-07-25T15:41:41.990Z,101080.71
2022-07-25T15:44:10.063Z,101074.19
2022-07-25T15:46:40.372Z,101075.89
2022-07-25T15:49:08.968Z,101068.96
2022-07-25T15:51:37.343Z,101065.63
2022-07-25T15:54:05.614Z,101069.30
2022-07-25T15:56:34.719Z,101064.73
2022-07-25T15:59:03.375Z,101060.68
2022-07-25T16:01:31.404Z,101059.15
2022-07-25T16:04:01.147Z,101052.63
2022-07-25T16:06:29.617Z,101047.91
2022-07-25T16:08:57.688Z,101047.91
2022-07-25T16:11:25.868Z,101042.66
2022-07-25T16:13:54.096Z,101040.81
2022-07-25T16:16:22.319Z,101033.33
2022-07-25T16:18:50.445Z,101027.37
2022-07-25T16:21:18.588Z,101027.40
2022-07-25T16:23:46.973Z,101027.05
2022-07-25T16:26:15.139Z,101025.89
2022-07-25T16:28:43.925Z,101022.88
2022-07-25T16:31:12.048Z,101019.73
2022-07-25T16:33:40.172Z,101020.29
2022-07-25T16:36:08.836Z,101021.65
2022-07-25T16:38:37.130Z,101019.35
2022-07-25T16:41:05.407Z,101018.86
2022-07-25T16:43:33.725Z,101017.55
2022-07-25T16:46:02.522Z,101020.52
2022-07-25T16:48:30.926Z,101017.71
2022-07-25T16:50:59.119Z,101011.75
2022-07-25T16:53:27.363Z,101010.05
2022-07-25T16:55:55.787Z,101005.48
2022-07-25T16:58:23.869Z,101005.45
2022-07-25T17:00:51.851Z,101001.94
2022-07-25T17:03:20.064Z,101000.39
2022-07-25T17:05:51.798Z,100998.14
2022-07-25T17:08:20.012Z,100991.04
2022-07-25T17:10:48.036Z,100989.50
2022-07-25T17:13:16.038Z,100978.98
2022-07-25T17:15:45.609Z,100977.27
2022-07-25T17:18:14.388Z,100974.12
2022-07-25T17:20:42.973Z,100969.15
2022-07-25T17:23:11.454Z,100965.81
2022-07-25T17:25:41.835Z,100963.08
2022-07-25T17:28:11.720Z,100958.08
2022-07-25T17:30:39.732Z,100954.13
2022-07-25T17:33:08.148Z,100949.16
2022-07-25T17:35:36.207Z,100938.59
2022-07-25T17:38:05.717Z,100938.23
2022-07-25T17:40:34.394Z,100930.58
2022-07-25T17:43:02.404Z,100927.20
2022-07-25T17:45:30.906Z,100928.18
2022-07-25T17:47:59.078Z,100926.95
2022-07-25T17:50:29.470Z,100923.05
2022-07-25T17:52:59.758Z,100922.89
2022-07-25T17:55:28.784Z,100916.95
2022-07-25T17:57:59.692Z,100915.31
2022-07-25T18:00:27.930Z,100917.38
2022-07-25T18:02:56.323Z,100909.79
2022-07-25T18:05:24.793Z,100912.00
2022-07-25T18:07:53.925Z,100921.20
2022-07-25T18:10:22.178Z,100918.66
2022-07-25T18:12:50.749Z,100918.44
2022-07-25T18:15:18.796Z,100916.89
2022-07-25T18:17:48.181Z,100917.88
2022-07-25T18:20:17.029Z,100920.23
2022-07-25T18:22:45.509Z,100919.23
2022-07-25T18:25:14.826Z,100915.40
2022-07-25T18:27:44.831Z,100913.17
2022-07-25T18:30:15.220Z,100911.63
2022-07-25T18:32:43.320Z,100907.97
2022-07-25T18:35:11.604Z,100914.46
2022-07-25T18:37:40.105Z,100916.73
2022-07-25T18:40:09.516Z,100914.05
2022-07-25T18:42:38.453Z,100916.65
2022-07-25T18:45:07.455Z,100920.42
2022-07-25T18:47:35.568Z,100923.39
2022-07-25T18:50:04.771Z,100923.96
2022-07-25T18:52:36.218Z,100926.39
2022-07-25T18:55:07.256Z,100929.09
2022-07-25T18:57:35.463Z,100931.02
2022-07-25T19:00:07.020Z,100932.56
2022-07-25T19:02:35.090Z,100930.08
2022-07-25T19:05:03.301Z,100927.59
2022-07-25T19:07:31.639Z,100923.45
2022-07-25T19:09:59.811Z,100923.02
2022-07-25T19:12:28.392Z,100923.45
2022-07-25T19:14:56.663Z,100917.50
2022-07-25T19:17:25.292Z,100916.90
2022-07-25T19:19:53.515Z,100919.96
2022-07-25T19:22:21.649Z,100920.84
2022-07-25T19:24:49.867Z,100917.65
2022-07-25T19:27:19.145Z,100910.73
2022-07-25T19:29:47.168Z,100908.65
2022-07-25T19:32:16.267Z,100911.21
2022-07-25T19:34:46.411Z,100912.46
2022-07-25T19:37:14.522Z,100908.81
2022-07-25T19:39:42.734Z,100908.27
2022-07-25T19:42:12.407Z,100909.04
2022-07-25T19:44:40.572Z,100909.10
2022-07-25T19:47:11.825Z,100907.57
2022-07-25T19:49:40.577Z,100912.11
2022-07-25T19:52:09.749Z,100909.29
2022-07-25T19:54:38.185Z,100905.51
2022-07-25T19:57:06.601Z,100893.98
2022-07-25T19:59:34.836Z,100895.73
2022-07-25T20:02:04.200Z,100894.77
2022-07-25T20:04:32.356Z,100900.08
2022-07-25T20:07:02.461Z,100905.17
2022-07-25T20:09:31.392Z,100903.00
2022-07-25T20:11:59.645Z,100900.30
2022-07-25T20:14:27.745Z,100898.30
2022-07-25T20:16:56.120Z,100899.18
2022-07-25T20:19:24.351Z,100894.01
2022-07-25T20:21:52.692Z,100895.89
2022-07-25T20:24:21.742Z,100892.30
2022-07-25T20:26:50.224Z,100889.52
2022-07-25T20:29:18.356Z,100890.90
2022-07-25T20:31:46.715Z,100887.98
2022-07-25T20:34:15.952Z,100888.05
2022-07-25T20:36:47.810Z,100885.67
2022-07-25T20:39:16.156Z,100884.88
2022-07-25T20:41:44.613Z,100881.42
2022-07-25T20:44:12.990Z,100882.23
2022-07-25T20:46:41.178Z,100885.60
2022-07-25T20:49:09.992Z,100889.59
2022-07-25T20:51:40.604Z,100889.59
2022-07-25T20:54:09.434Z,100886.87
2022-07-25T20:56:37.773Z,100887.19
2022-07-25T20:59:06.158Z,100890.73
2022-07-25T21:01:34.596Z,100887.39
2022-07-25T21:04:07.270Z,100885.50
2022-07-25T21:06:36.760Z,100883.58
2022-07-25T21:09:06.259Z,100883.84
2022-07-25T21:11:38.166Z,100887.79
2022-07-25T21:14:07.334Z,100884.94
2022-07-25T21:16:35.805Z,100876.38
2022-07-25T21:19:04.010Z,100869.88
2022-07-25T21:21:32.494Z,100864.91
2022-07-25T21:24:01.653Z,100862.63
2022-07-25T21:26:29.971Z,100857.83
2022-07-25T21:28:58.143Z,100859.76
2022-07-25T21:31:26.242Z,100858.88
2022-07-25T21:33:54.233Z,100861.14
2022-07-25T21:36:22.610Z,100859.90
2022-07-25T21:38:50.834Z,100854.45
2022-07-25T21:41:19.008Z,100852.02
2022-07-25T21:43:48.296Z,100851.10
2022-07-25T21:46:16.639Z,100849.37
2022-07-25T21:49:03.583Z,100845.84
2022-07-25T21:51:40.296Z,100844.34
2022-07-25T21:54:09.200Z,100844.05
2022-07-25T21:56:37.637Z,100842.16
2022-07-25T21:59:07.131Z,100833.52
2022-07-25T22:01:35.676Z,100828.27
2022-07-25T22:04:18.187Z,100824.42
2022-07-25T22:06:46.739Z,100823.19
2022-07-25T22:09:14.893Z,100820.27
2022-07-25T22:11:46.221Z,100814.56
2022-07-25T22:14:15.554Z,100811.73
2022-07-25T22:16:43.885Z,100809.30
2022-07-25T22:19:12.550Z,100802.94
2022-07-25T22:21:41.697Z,100799.05
2022-07-25T22:24:10.728Z,100798.17
2022-07-25T22:26:38.971Z,100795.84
2022-07-25T22:29:07.502Z,100793.66
2022-07-25T22:31:35.832Z,100793.63
2022-07-25T22:34:03.981Z,100791.83
2022-07-25T22:36:32.161Z,100784.84
2022-07-25T22:39:00.180Z,100781.57
2022-07-25T22:41:28.645Z,100784.01
2022-07-25T22:43:59.972Z,100784.25
2022-07-25T22:46:35.080Z,100779.93
2022-07-25T22:49:04.390Z,100774.00
2022-07-25T22:51:32.878Z,100768.33
2022-07-25T22:54:01.472Z,100761.98
2022-07-25T22:56:29.902Z,100760.05
2022-07-25T22:58:58.010Z,100756.52
2022-07-25T23:01:26.290Z,100754.95
2022-07-25T23:03:54.838Z,100751.92
2022-07-25T23:06:22.980Z,100749.31
2022-07-25T23:08:51.357Z,100743.59
2022-07-25T23:11:19.667Z,100746.45
2022-07-25T23:13:47.725Z,100746.23
2022-07-25T23:16:16.225Z,100749.39
2022-07-25T23:18:45.335Z,100753.09
2022-07-25T23:21:13.517Z,100745.58
2022-07-25T23:23:41.606Z,100742.36
2022-07-25T23:26:09.873Z,100736.35
2022-07-25T23:28:38.031Z,100727.95
2022-07-25T23:31:06.358Z,100725.00
2022-07-25T23:33:34.579Z,100720.67
2022-07-25T23:36:02.707Z,100720.58
2022-07-25T23:38:30.830Z,100715.27
2022-07-25T23:40:58.885Z,100713.86
2022-07-25T23:43:56.896Z,100709.59
2022-07-25T23:46:14.977Z,100702.26
2022-07-25T23:48:43.458Z,100701.04
2022-07-25T23:51:11.655Z,100705.55
2022-07-25T23:53:40.035Z,100704.36
2022-07-25T23:56:08.328Z,100696.80
2022-07-25T23:58:36.380Z,100685.80
